createdAt,value
2018-07-06T00:01:11.815Z,80.60
2018-07-06T00:03:51.316Z,80.90
2018-07-06T00:06:31.059Z,81.30
2018-07-06T00:09:10.693Z,81.60
2018-07-06T00:11:50.333Z,81.30
2018-07-06T00:14:30.032Z,81.60
2018-07-06T00:17:09.714Z,81.40
2018-07-06T00:19:49.174Z,81.40
2018-07-06T00:22:28.908Z,82.10
2018-07-06T00:25:08.556Z,82.00
2018-07-06T00:27:48.221Z,82.20
2018-07-06T00:30:27.879Z,82.80
2018-07-06T00:33:07.315Z,83.30
2018-07-06T00:35:46.903Z,83.10
2018-07-06T00:38:26.464Z,83.70
2018-07-06T00:41:06.159Z,84.40
2018-07-06T00:43:45.708Z,85.30
2018-07-06T00:46:25.391Z,86.10
2018-07-06T00:49:04.924Z,86.80
2018-07-06T00:51:44.720Z,87.60
2018-07-06T00:54:24.331Z,88.10
2018-07-06T00:57:03.989Z,89.20
2018-07-06T00:59:43.699Z,90.30
2018-07-06T01:02:23.207Z,90.90
2018-07-06T01:05:02.788Z,91.10
2018-07-06T01:07:42.547Z,91.30
2018-07-06T01:10:22.293Z,90.90
2018-07-06T01:15:40.642Z,89.90
2018-07-06T01:18:20.268Z,89.30
2018-07-06T01:21:00.349Z,88.90
2018-07-06T01:23:39.942Z,89.40
2018-07-06T01:26:19.674Z,88.70
2018-07-06T01:28:59.682Z,88.80
2018-07-06T01:31:39.374Z,89.20
2018-07-06T01:34:19.008Z,89.40
2018-07-06T01:36:58.598Z,89.60
2018-07-06T01:39:39.110Z,89.80
2018-07-06T01:42:18.685Z,90.10
2018-07-06T01:44:58.230Z,90.30
2018-07-06T01:55:18.676Z,90.60
2018-07-06T01:57:58.346Z,90.40
2018-07-06T02:00:38.197Z,90.40
2018-07-06T02:03:17.654Z,90.50
2018-07-06T02:05:57.090Z,90.60
2018-07-06T02:08:36.624Z,90.90
2018-07-06T02:11:16.483Z,91.10
2018-07-06T02:13:56.236Z,91.30
2018-07-06T02:16:35.854Z,91.60
2018-07-06T02:29:30.225Z,92.90
2018-07-06T02:32:09.967Z,93.10
2018-07-06T02:34:49.702Z,93.20
2018-07-06T02:37:29.366Z,93.50
2018-07-06T02:40:09.097Z,93.80
2018-07-06T02:42:48.771Z,94.10
2018-07-06T02:50:35.845Z,95.10
2018-07-06T02:53:15.500Z,95.40
2018-07-06T02:55:55.196Z,95.60
2018-07-06T02:58:34.773Z,95.70
2018-07-06T03:01:14.510Z,95.70
2018-07-06T03:03:54.031Z,96.00
2018-07-06T03:06:33.500Z,96.00
2018-07-06T03:09:14.430Z,96.00
2018-07-06T03:11:54.186Z,96.30
2018-07-06T03:19:42.241Z,96.60
2018-07-06T03:24:55.711Z,96.70
2018-07-06T03:27:35.285Z,96.50
2018-07-06T03:32:48.412Z,96.20
2018-07-06T03:35:28.082Z,96.10
2018-07-06T03:43:14.910Z,96.00
2018-07-06T03:45:54.495Z,95.90
2018-07-06T03:48:34.231Z,95.90
2018-07-06T03:51:14.465Z,95.90
2018-07-06T03:53:54.143Z,95.80
2018-07-06T03:56:33.723Z,95.80
2018-07-06T03:59:13.300Z,95.90
2018-07-06T04:01:52.943Z,95.70
2018-07-06T04:04:33.250Z,95.70
2018-07-06T04:07:12.743Z,95.60
2018-07-06T04:09:52.409Z,95.60
2018-07-06T04:12:31.854Z,95.40
2018-07-06T04:15:11.460Z,95.30
2018-07-06T04:17:50.904Z,95.10
2018-07-06T04:20:30.455Z,95.10
2018-07-06T04:23:09.921Z,94.90
2018-07-06T04:25:49.553Z,94.80
2018-07-06T04:28:29.129Z,94.80
2018-07-06T04:38:50.154Z,94.80
2018-07-06T04:41:29.774Z,94.80
2018-07-06T04:44:09.409Z,94.80
2018-07-06T04:46:48.893Z,94.90
2018-07-06T04:49:28.485Z,94.70
2018-07-06T04:52:08.150Z,94.80
2018-07-06T04:54:47.753Z,94.70
2018-07-06T04:57:28.002Z,93.90
2018-07-06T05:02:41.307Z,93.60
2018-07-06T05:05:20.761Z,93.40
2018-07-06T05:25:56.067Z,91.40
2018-07-06T05:28:35.673Z,91.00
2018-07-06T05:31:15.332Z,91.20
2018-07-06T05:36:28.384Z,89.40
2018-07-06T05:39:08.042Z,89.20
2018-07-06T05:41:47.601Z,88.50
2018-07-06T05:47:00.765Z,86.90
2018-07-06T05:49:40.394Z,86.30
2018-07-06T05:54:53.739Z,84.30
2018-07-06T05:57:33.440Z,83.30
2018-07-06T06:00:13.009Z,83.50
2018-07-06T06:02:52.949Z,83.70
2018-07-06T06:05:32.493Z,83.30
2018-07-06T06:07:59.844Z,82.90
2018-07-06T06:10:28.359Z,83.10
2018-07-06T06:12:56.843Z,83.30
2018-07-06T06:15:25.443Z,83.30
2018-07-06T06:17:53.959Z,82.70
2018-07-06T06:20:22.431Z,82.60
2018-07-06T06:22:50.931Z,82.80
2018-07-06T06:27:47.703Z,81.40
2018-07-06T06:30:16.257Z,81.90
2018-07-06T06:32:45.332Z,82.30
2018-07-06T06:35:13.909Z,82.60
2018-07-06T06:37:42.999Z,82.80
2018-07-06T06:42:40.345Z,82.20
2018-07-06T06:47:37.245Z,82.00
2018-07-06T06:50:05.776Z,82.00
2018-07-06T06:52:34.340Z,81.50
2018-07-06T07:00:00.040Z,80.60
2018-07-06T07:02:28.693Z,79.50
2018-07-06T07:04:57.198Z,79.10
2018-07-06T07:07:25.940Z,79.00
2018-07-06T07:09:54.442Z,78.20
2018-07-06T07:12:22.929Z,78.30
2018-07-06T07:14:51.446Z,77.50
2018-07-06T07:17:19.947Z,77.00
2018-07-06T07:22:16.759Z,76.60
2018-07-06T07:24:45.478Z,76.20
2018-07-06T07:27:14.259Z,76.10
2018-07-06T07:29:42.928Z,76.90
2018-07-06T07:34:39.838Z,76.10
2018-07-06T07:37:08.395Z,75.80
2018-07-06T07:39:36.974Z,74.90
2018-07-06T07:42:05.525Z,74.90
2018-07-06T07:47:02.632Z,75.20
2018-07-06T07:49:31.168Z,75.60
2018-07-06T07:52:12.135Z,73.90
2018-07-06T07:54:46.060Z,74.80
2018-07-06T07:57:14.989Z,74.10
2018-07-06T07:59:43.888Z,75.10
2018-07-06T08:02:12.731Z,74.70
2018-07-06T08:04:41.671Z,74.80
2018-07-06T08:07:10.157Z,75.20
2018-07-06T08:14:35.084Z,72.60
2018-07-06T08:19:31.792Z,73.10
2018-07-06T08:22:00.364Z,73.40
2018-07-06T08:26:57.123Z,73.00
2018-07-06T08:29:25.614Z,69.10
2018-07-06T08:52:24.442Z,66.10
2018-07-06T09:12:13.584Z,65.00
2018-07-06T09:27:06.482Z,62.40
2018-07-06T10:09:08.703Z,57.80
2018-07-06T10:34:33.091Z,55.00
2018-07-06T10:37:01.656Z,55.10
2018-07-06T10:39:30.253Z,53.80
2018-07-06T10:41:58.738Z,53.80
2018-07-06T10:44:27.259Z,53.90
2018-07-06T10:49:24.266Z,53.10
2018-07-06T10:51:52.898Z,52.40
2018-07-06T10:54:22.753Z,52.60
2018-07-06T10:56:51.741Z,51.20
2018-07-06T10:59:20.467Z,48.70
2018-07-06T11:01:51.419Z,50.00
2018-07-06T11:04:22.990Z,49.90
2018-07-06T11:16:23.458Z,50.10
2018-07-06T11:18:52.094Z,50.50
2018-07-06T11:21:20.588Z,47.60
2018-07-06T11:23:49.135Z,46.20
2018-07-06T11:26:17.680Z,47.70
2018-07-06T11:28:46.399Z,47.20
2018-07-06T11:31:14.955Z,47.00
2018-07-06T11:33:43.490Z,46.00
2018-07-06T11:36:12.279Z,45.10
2018-07-06T11:38:40.842Z,44.90
2018-07-06T11:41:09.396Z,46.40
2018-07-06T11:43:37.947Z,46.50
2018-07-06T11:46:06.652Z,46.70
2018-07-06T11:48:35.181Z,43.90
2018-07-06T11:51:03.825Z,45.90
2018-07-06T11:53:32.360Z,44.50
2018-07-06T11:56:00.980Z,44.30
2018-07-06T11:58:29.475Z,43.10
2018-07-06T12:06:24.314Z,42.60
2018-07-06T12:08:52.910Z,42.20
2018-07-06T12:11:21.464Z,41.10
2018-07-06T12:13:50.080Z,39.00
2018-07-06T12:16:18.653Z,36.80
2018-07-06T12:18:47.156Z,37.40
2018-07-06T12:21:15.785Z,34.40
2018-07-06T12:23:44.223Z,31.90
2018-07-06T12:26:13.763Z,31.70
2018-07-06T12:28:45.859Z,31.50
2018-07-06T12:31:14.538Z,31.60
2018-07-06T12:33:43.147Z,31.90
2018-07-06T12:36:12.444Z,32.30
2018-07-06T12:38:41.037Z,30.60
2018-07-06T12:41:09.562Z,29.10
2018-07-06T12:43:38.063Z,28.60
2018-07-06T12:46:06.651Z,29.30
2018-07-06T12:48:35.164Z,30.90
2018-07-06T12:51:04.084Z,30.70
2018-07-06T12:53:32.634Z,31.30
2018-07-06T12:56:02.069Z,32.60
2018-07-06T12:58:30.673Z,33.70
2018-07-06T13:00:59.119Z,32.60
2018-07-06T13:03:27.716Z,32.90
2018-07-06T13:05:56.340Z,32.80
2018-07-06T13:08:24.888Z,32.50
2018-07-06T13:10:53.437Z,29.00
2018-07-06T13:13:21.994Z,26.70
2018-07-06T13:15:50.568Z,26.10
2018-07-06T13:18:19.080Z,22.80
2018-07-06T13:20:47.774Z,24.70
2018-07-06T13:23:16.454Z,25.40
2018-07-06T13:25:44.958Z,25.40
2018-07-06T13:28:14.094Z,25.30
2018-07-06T13:30:42.624Z,26.10
2018-07-06T13:33:11.100Z,25.20
2018-07-06T13:35:39.693Z,24.40
2018-07-06T13:38:08.428Z,24.20
2018-07-06T13:40:38.574Z,24.70
2018-07-06T13:43:08.911Z,23.90
2018-07-06T13:45:39.335Z,24.70
2018-07-06T13:48:07.843Z,25.90
2018-07-06T13:50:36.428Z,27.00
2018-07-06T13:53:05.014Z,28.50
2018-07-06T13:58:02.085Z,28.00
2018-07-06T14:00:30.562Z,26.70
2018-07-06T14:02:59.040Z,27.40
2018-07-06T14:05:27.580Z,27.10
2018-07-06T14:07:56.116Z,27.40
2018-07-06T14:10:24.576Z,29.00
2018-07-06T14:23:48.895Z,34.40
2018-07-06T14:28:48.165Z,35.20
2018-07-06T14:31:16.684Z,34.70
2018-07-06T15:13:18.563Z,43.60
2018-07-06T15:15:47.200Z,43.60
2018-07-06T15:23:12.812Z,43.50
2018-07-06T15:25:41.330Z,44.10
